createdAt,value
2018-11-28T00:06:50.878Z,99.90
2018-11-28T00:16:55.913Z,99.90
2018-11-28T00:21:58.557Z,99.90
2018-11-28T00:27:01.113Z,99.90
2018-11-28T00:32:03.608Z,99.90
2018-11-28T00:37:06.171Z,99.90
2018-11-28T00:42:08.718Z,99.90
2018-11-28T00:47:11.362Z,99.90
2018-11-28T00:52:13.895Z,99.90
2018-11-28T00:57:16.433Z,99.90
2018-11-28T01:02:18.962Z,99.90
2018-11-28T01:07:21.478Z,99.90
2018-11-28T01:12:24.004Z,99.90
2018-11-28T01:17:26.542Z,99.90
2018-11-28T01:22:29.080Z,99.90
2018-11-28T01:27:31.626Z,99.90
2018-11-28T01:32:34.142Z,99.90
2018-11-28T01:37:37.017Z,99.90
2018-11-28T01:42:40.234Z,99.90
2018-11-28T01:47:42.961Z,99.90
2018-11-28T01:52:45.531Z,99.90
2018-11-28T01:57:48.077Z,99.90
2018-11-28T02:02:52.179Z,99.90
2018-11-28T02:07:54.706Z,99.90
2018-11-28T02:12:57.211Z,99.90
2018-11-28T02:17:59.742Z,99.90
2018-11-28T02:23:02.278Z,99.90
2018-11-28T02:28:05.079Z,99.90
2018-11-28T02:38:10.006Z,99.90
2018-11-28T02:43:12.596Z,99.90
2018-11-28T02:48:15.114Z,99.90
2018-11-28T02:53:17.635Z,99.90
2018-11-28T02:58:20.167Z,99.90
2018-11-28T03:03:22.724Z,99.90
2018-11-28T03:08:25.258Z,99.90
2018-11-28T03:13:27.810Z,99.90
2018-11-28T03:18:30.359Z,99.90
2018-11-28T03:28:35.298Z,99.90
2018-11-28T03:33:37.838Z,99.90
2018-11-28T03:38:40.388Z,99.90
2018-11-28T03:43:42.934Z,99.90
2018-11-28T03:48:45.493Z,99.90
2018-11-28T03:53:48.039Z,99.90
2018-11-28T03:58:50.583Z,99.90
2018-11-28T04:03:53.122Z,99.90
2018-11-28T04:08:55.638Z,99.90
2018-11-28T04:13:58.189Z,99.90
2018-11-28T04:19:03.673Z,99.90
2018-11-28T04:24:06.226Z,99.90
2018-11-28T04:29:08.747Z,99.90
2018-11-28T04:34:11.292Z,99.90
2018-11-28T04:39:13.802Z,99.90
2018-11-28T04:44:16.661Z,99.90
2018-11-28T04:49:19.191Z,99.90
2018-11-28T04:54:21.701Z,99.90
2018-11-28T04:59:24.221Z,99.90
2018-11-28T05:04:26.755Z,99.90
2018-11-28T05:09:29.358Z,99.90
2018-11-28T05:14:31.879Z,99.90
2018-11-28T05:19:34.437Z,99.90
2018-11-28T05:24:37.002Z,99.90
2018-11-28T05:29:39.527Z,99.90
2018-11-28T05:34:42.138Z,99.90
2018-11-28T05:39:44.716Z,99.90
2018-11-28T05:44:47.242Z,99.90
2018-11-28T05:49:50.130Z,99.90
2018-11-28T05:54:52.719Z,99.90
2018-11-28T05:59:55.305Z,99.90
2018-11-28T06:04:57.851Z,99.90
2018-11-28T06:10:00.499Z,99.90
2018-11-28T06:15:03.248Z,99.90
2018-11-28T06:20:10.786Z,99.90
2018-11-28T06:30:18.318Z,99.90
2018-11-28T06:35:20.878Z,99.90
2018-11-28T06:40:24.182Z,99.90
2018-11-28T06:45:25.959Z,99.90
2018-11-28T06:50:28.498Z,99.90
2018-11-28T06:55:31.086Z,99.90
2018-11-28T07:00:33.617Z,99.90
2018-11-28T07:05:36.219Z,99.90
2018-11-28T07:10:38.751Z,99.90
2018-11-28T07:15:41.298Z,99.90
2018-11-28T07:20:43.830Z,99.90
2018-11-28T07:25:46.386Z,99.90
2018-11-28T07:30:48.956Z,99.90
2018-11-28T07:35:51.502Z,99.90
2018-11-28T07:40:54.023Z,99.90
2018-11-28T07:45:56.586Z,99.90
2018-11-28T07:50:59.276Z,99.90
2018-11-28T07:56:01.835Z,99.90
2018-11-28T08:01:04.511Z,99.90
2018-11-28T08:06:07.082Z,99.90
2018-11-28T08:11:09.615Z,99.90
2018-11-28T08:16:12.182Z,99.90
2018-11-28T08:21:14.747Z,99.90
2018-11-28T08:26:17.290Z,99.90
2018-11-28T08:31:19.920Z,99.90
2018-11-28T08:36:22.458Z,99.90
2018-11-28T08:41:25.015Z,99.90
2018-11-28T08:46:27.543Z,99.90
2018-11-28T08:51:30.124Z,99.90
2018-11-28T08:56:32.679Z,99.90
2018-11-28T09:01:35.303Z,99.90
2018-11-28T09:06:37.831Z,99.90
2018-11-28T09:11:40.355Z,99.90
2018-11-28T09:16:42.899Z,99.90
2018-11-28T09:21:45.425Z,99.90
2018-11-28T09:26:47.962Z,99.90
2018-11-28T09:31:50.474Z,99.90
2018-11-28T09:36:53.027Z,99.90
2018-11-28T09:41:55.561Z,99.90
2018-11-28T09:46:58.070Z,99.90
2018-11-28T09:52:00.639Z,99.90
2018-11-28T09:57:03.212Z,99.90
2018-11-28T10:02:05.841Z,99.90
2018-11-28T10:07:08.494Z,99.90
2018-11-28T10:12:11.037Z,99.90
2018-11-28T10:17:13.595Z,99.90
2018-11-28T10:22:16.138Z,99.90
2018-11-28T10:27:18.670Z,99.90
2018-11-28T10:32:21.222Z,99.90
2018-11-28T10:37:23.758Z,99.90
2018-11-28T10:42:26.298Z,99.90
2018-11-28T10:47:28.835Z,99.90
2018-11-28T10:52:31.402Z,99.90
2018-11-28T10:57:33.965Z,99.90
2018-11-28T11:03:42.599Z,99.90
2018-11-28T11:08:50.751Z,99.90
2018-11-28T11:13:59.041Z,98.80
2018-11-28T11:19:01.703Z,99.90
2018-11-28T11:24:04.476Z,99.90
2018-11-28T11:29:07.089Z,99.90
2018-11-28T11:34:09.628Z,99.90
2018-11-28T11:39:12.170Z,99.90
2018-11-28T11:44:14.720Z,99.90
2018-11-28T11:49:17.286Z,99.90
2018-11-28T11:54:19.820Z,99.90
2018-11-28T11:59:22.386Z,99.90
2018-11-28T12:04:24.905Z,99.90
2018-11-28T12:09:27.466Z,99.90
2018-11-28T12:14:30.013Z,99.90
2018-11-28T12:19:32.585Z,97.80
2018-11-28T12:24:35.139Z,96.90
2018-11-28T12:29:37.689Z,94.40
2018-11-28T12:34:40.223Z,96.20
2018-11-28T12:39:42.825Z,94.00
2018-11-28T12:44:45.390Z,91.60
2018-11-28T12:49:47.954Z,92.90
2018-11-28T12:54:50.522Z,91.80
2018-11-28T12:59:53.086Z,90.50
2018-11-28T13:04:59.844Z,90.90
2018-11-28T13:09:58.255Z,89.60
2018-11-28T13:15:00.793Z,87.90
2018-11-28T13:20:04.552Z,87.30
2018-11-28T13:25:09.126Z,88.90
2018-11-28T13:30:19.346Z,90.80
2018-11-28T13:35:22.789Z,92.60
2018-11-28T13:40:25.331Z,98.10
2018-11-28T13:45:29.406Z,99.90
2018-11-28T13:50:31.953Z,99.90
2018-11-28T13:55:40.352Z,99.90
2018-11-28T14:00:41.403Z,99.90
2018-11-28T14:05:43.996Z,99.90
2018-11-28T14:10:46.861Z,99.90
2018-11-28T14:15:49.475Z,99.90
2018-11-28T14:20:52.107Z,99.90
2018-11-28T14:25:54.643Z,99.90
2018-11-28T14:30:57.210Z,99.90
2018-11-28T14:35:59.862Z,99.90
2018-11-28T14:41:02.427Z,99.90
2018-11-28T14:46:05.042Z,99.90
2018-11-28T14:51:07.638Z,99.90
2018-11-28T14:56:10.204Z,99.90
2018-11-28T15:01:12.767Z,99.90
2018-11-28T15:06:30.631Z,99.90
2018-11-28T15:11:33.219Z,99.90
2018-11-28T15:16:35.779Z,99.90
2018-11-28T15:21:38.341Z,99.90
2018-11-28T15:26:40.934Z,99.90
2018-11-28T15:31:43.562Z,99.90
2018-11-28T15:36:46.095Z,99.90
2018-11-28T15:41:48.621Z,99.90
2018-11-28T15:46:51.188Z,99.90
2018-11-28T15:51:53.724Z,99.90
2018-11-28T15:56:56.271Z,99.90
2018-11-28T16:01:58.844Z,99.90
2018-11-28T16:07:02.074Z,99.90
2018-11-28T16:12:04.658Z,99.90
2018-11-28T16:17:07.266Z,99.90
2018-11-28T16:22:09.837Z,99.90
2018-11-28T16:27:12.434Z,99.90
2018-11-28T16:32:15.073Z,99.90
2018-11-28T16:37:17.676Z,99.90
2018-11-28T16:42:20.303Z,99.90
2018-11-28T16:47:22.829Z,99.90
2018-11-28T16:52:25.655Z,99.90
2018-11-28T16:57:28.192Z,99.90
2018-11-28T17:02:30.774Z,99.90
2018-11-28T17:07:33.306Z,99.90
2018-11-28T17:12:35.874Z,99.90
2018-11-28T17:17:39.047Z,99.90
2018-11-28T17:22:41.742Z,99.90
2018-11-28T17:27:44.296Z,99.90
2018-11-28T17:32:46.874Z,99.90
2018-11-28T17:37:49.668Z,99.90
2018-11-28T17:42:54.362Z,99.90
2018-11-28T17:53:02.203Z,99.90
2018-11-28T17:58:05.287Z,99.90
2018-11-28T18:03:07.851Z,99.90
2018-11-28T18:08:10.591Z,99.90
2018-11-28T18:13:14.130Z,99.90
2018-11-28T18:18:18.874Z,99.90
2018-11-28T18:23:21.468Z,99.90
2018-11-28T18:28:24.086Z,99.90
2018-11-28T18:33:26.683Z,99.90
2018-11-28T18:38:29.294Z,99.90
2018-11-28T18:43:31.890Z,99.90
2018-11-28T18:48:34.495Z,99.90
2018-11-28T18:53:37.832Z,99.90
2018-11-28T18:58:40.411Z,99.90
2018-11-28T19:03:42.975Z,99.90
2018-11-28T19:08:45.612Z,99.90
2018-11-28T19:13:49.004Z,99.90
2018-11-28T19:28:56.561Z,99.90
2018-11-28T19:33:59.172Z,99.90
2018-11-28T19:39:01.903Z,99.90
2018-11-28T19:44:05.303Z,99.90
2018-11-28T19:49:07.894Z,99.90
2018-11-28T19:54:10.454Z,99.90
2018-11-28T19:59:13.059Z,99.90
2018-11-28T20:04:16.463Z,99.90
2018-11-28T20:09:20.953Z,99.90
2018-11-28T20:14:23.521Z,99.90
2018-11-28T20:19:26.099Z,99.90
2018-11-28T20:24:28.709Z,99.90
2018-11-28T20:29:31.307Z,99.90
2018-11-28T20:34:33.880Z,99.90
2018-11-28T20:39:36.514Z,99.90
2018-11-28T20:44:39.096Z,99.90
2018-11-28T20:49:41.698Z,99.90
2018-11-28T20:54:44.297Z,99.90
2018-11-28T20:59:46.915Z,99.90
2018-11-28T21:04:49.583Z,99.90
2018-11-28T21:09:54.003Z,99.90
2018-11-28T21:14:56.566Z,99.90
2018-11-28T21:19:59.296Z,99.90
2018-11-28T21:25:01.990Z,99.90
2018-11-28T21:30:10.379Z,99.90
2018-11-28T21:35:15.198Z,99.90
2018-11-28T21:40:17.786Z,99.90
2018-11-28T21:45:21.183Z,99.90
2018-11-28T21:50:23.722Z,99.90
2018-11-28T21:55:26.267Z,99.90
2018-11-28T22:00:28.834Z,99.90
2018-11-28T22:05:31.386Z,99.90
2018-11-28T22:10:33.950Z,99.90
2018-11-28T22:15:36.526Z,99.90
2018-11-28T22:20:39.079Z,99.90
2018-11-28T22:25:41.609Z,99.90
2018-11-28T22:30:44.171Z,99.90
2018-11-28T22:35:46.713Z,99.90
2018-11-28T22:40:49.326Z,99.90
2018-11-28T22:45:51.838Z,99.90
2018-11-28T22:50:54.372Z,99.90
2018-11-28T22:55:56.945Z,99.90
2018-11-28T23:01:05.133Z,99.90
2018-11-28T23:06:07.674Z,99.90
2018-11-28T23:11:10.213Z,99.90
2018-11-28T23:16:12.758Z,99.90
2018-11-28T23:21:15.320Z,99.90
2018-11-28T23:26:17.941Z,99.90
2018-11-28T23:31:20.463Z,99.90
2018-11-28T23:36:23.006Z,99.90
2018-11-28T23:41:25.561Z,99.90
2018-11-28T23:46:28.098Z,99.90
2018-11-28T23:51:30.619Z,99.90
2018-11-28T23:56:33.158Z,99.90
